Time;durP1;ratioP1;P1;durP2;ratioP2;P2;SDS_P1;SDS_P2;PMS_P1;PMS_P2;Temp;Humidity;BMP_temperature;BMP_pressure;BME280_temperature;BME280_humidity;BME280_pressure;Samples;Min_cycle;Max_cycle;Signal;HPM_P1;HPM_P2
2023/12/11 00:00:49;;;;;;;63.60;34.38;;;;;;;;;;6147662;23;20014;-72
2023/12/11 00:03:14;;;;;;;74.40;36.70;;;;;;;;;;6148964;23;20436;-72
2023/12/11 00:05:41;;;;;;;60.55;33.00;;;;;;;;;;6147671;23;20023;-72
2023/12/11 00:08:07;;;;;;;84.22;41.00;;;;;;;;;;6143466;23;20021;-72
2023/12/11 00:10:33;;;;;;;106.85;52.10;;;;;;;;;;6145686;23;20002;-71
2023/12/11 00:12:59;;;;;;;90.57;41.33;;;;;;;;;;6147604;23;20071;-71
2023/12/11 00:15:25;;;;;;;69.65;36.53;;;;;;;;;;6080890;23;20092;-71
2023/12/11 00:17:51;;;;;;;67.53;37.22;;;;;;;;;;6118532;23;20021;-73
2023/12/11 00:20:17;;;;;;;57.28;32.40;;;;;;;;;;6091794;23;20006;-72
2023/12/11 00:22:43;;;;;;;59.88;30.02;;;;;;;;;;6067699;23;20097;-72
2023/12/11 00:25:10;;;;;;;54.20;28.15;;;;;;;;;;6083809;23;20041;-72
2023/12/11 00:27:36;;;;;;;44.50;23.98;;;;;;;;;;6091200;23;20048;-72
2023/12/11 00:30:02;;;;;;;39.53;23.27;;;;;;;;;;6118316;23;20353;-72
2023/12/11 00:32:28;;;;;;;41.35;22.23;;;;;;;;;;6117964;23;20018;-72
2023/12/11 00:34:54;;;;;;;39.53;21.80;;;;;;;;;;6128080;23;20025;-72
2023/12/11 00:37:20;;;;;;;35.30;20.30;;;;;;;;;;6147369;23;20136;-72
2023/12/11 00:39:46;;;;;;;37.78;19.20;;;;;;;;;;6148688;23;20065;-72
2023/12/11 00:42:12;;;;;;;38.17;20.17;;;;;;;;;;6125031;23;20006;-72
2023/12/11 00:44:38;;;;;;;40.60;20.38;;;;;;;;;;6149755;23;20017;-73
2023/12/11 00:47:04;;;;;;;35.45;19.35;;;;;;;;;;6147925;23;20037;-73
2023/12/11 00:49:31;;;;;;;40.70;21.63;;;;;;;;;;6148831;23;20015;-72
2023/12/11 00:51:57;;;;;;;46.08;22.58;;;;;;;;;;6147303;23;20028;-72
2023/12/11 00:54:23;;;;;;;35.45;19.13;;;;;;;;;;6149452;23;20017;-73
2023/12/11 00:56:48;;;;;;;34.58;18.17;;;;;;;;;;6149705;23;20024;-73
2023/12/11 00:59:14;;;;;;;35.00;20.05;;;;;;;;;;6149853;23;20045;-73
2023/12/11 01:01:40;;;;;;;38.08;19.77;;;;;;;;;;6123323;23;20116;-72
2023/12/11 01:04:06;;;;;;;33.30;18.20;;;;;;;;;;6148566;23;20097;-71
2023/12/11 01:06:32;;;;;;;34.58;19.88;;;;;;;;;;6147031;23;20112;-71
2023/12/11 01:08:57;;;;;;;44.45;22.48;;;;;;;;;;6149247;23;20105;-72
2023/12/11 01:11:23;;;;;;;37.78;21.55;;;;;;;;;;6147579;23;20010;-72
2023/12/11 01:13:49;;;;;;;41.60;22.50;;;;;;;;;;6148076;23;20013;-72
2023/12/11 01:16:15;;;;;;;49.55;25.85;;;;;;;;;;6147561;23;20025;-73
2023/12/11 01:18:42;;;;;;;47.17;26.42;;;;;;;;;;6123421;23;20068;-71
2023/12/11 01:21:08;;;;;;;44.78;24.60;;;;;;;;;;6149132;23;20021;-72
2023/12/11 01:23:34;;;;;;;49.38;27.08;;;;;;;;;;6143633;23;20021;-73
2023/12/11 01:25:59;;;;;;;52.85;27.10;;;;;;;;;;6120183;23;20022;-72
2023/12/11 01:28:25;;;;;;;40.75;24.40;;;;;;;;;;6094656;23;20022;-72
2023/12/11 01:30:51;;;;;;;48.97;25.20;;;;;;;;;;6120091;23;20348;-72
2023/12/11 01:33:17;;;;;;;44.75;23.88;;;;;;;;;;6119310;23;20014;-72
2023/12/11 01:35:43;;;;;;;42.67;24.65;;;;;;;;;;6120418;23;20025;-73
2023/12/11 01:38:09;;;;;;;41.00;22.75;;;;;;;;;;6119579;23;20045;-73
2023/12/11 01:40:35;;;;;;;46.90;24.45;;;;;;;;;;6092041;23;20018;-73
2023/12/11 01:43:18;;;;;;;42.50;22.60;;;;;;;;;;6117884;23;20314;-72
2023/12/11 01:45:49;;;;;;;51.30;26.03;;;;;;;;;;6103473;23;20365;-72
2023/12/11 01:48:15;;;;;;;44.08;24.90;;;;;;;;;;6095860;23;20560;-72
2023/12/11 01:50:41;;;;;;;44.10;23.42;;;;;;;;;;6096270;23;20062;-73
2023/12/11 01:53:08;;;;;;;39.58;22.08;;;;;;;;;;6095674;23;20018;-72
2023/12/11 01:55:36;;;;;;;40.58;23.65;;;;;;;;;;6096427;23;20037;-72
2023/12/11 01:58:03;;;;;;;40.90;22.45;;;;;;;;;;6096411;23;20077;-72
2023/12/11 02:00:29;;;;;;;41.05;22.10;;;;;;;;;;6096488;23;20089;-72
2023/12/11 02:02:55;;;;;;;41.58;21.98;;;;;;;;;;6056890;23;20078;-72
2023/12/11 02:05:21;;;;;;;44.95;22.92;;;;;;;;;;6122856;23;20014;-72
2023/12/11 02:07:46;;;;;;;41.60;23.00;;;;;;;;;;6126203;23;20021;-72
2023/12/11 02:10:12;;;;;;;41.53;23.40;;;;;;;;;;6124704;23;20045;-72
2023/12/11 02:12:40;;;;;;;46.83;24.52;;;;;;;;;;6075344;23;20041;-72
2023/12/11 02:15:07;;;;;;;40.33;22.35;;;;;;;;;;6099664;23;20044;-72
2023/12/11 02:17:32;;;;;;;42.05;23.05;;;;;;;;;;6125804;23;20014;-73
2023/12/11 02:19:58;;;;;;;41.70;21.92;;;;;;;;;;6099898;23;20016;-73
2023/12/11 02:22:24;;;;;;;40.30;22.98;;;;;;;;;;6123509;23;20036;-72
2023/12/11 02:24:57;;;;;;;41.72;23.05;;;;;;;;;;6125174;23;20009;-72
2023/12/11 02:27:24;;;;;;;42.97;22.13;;;;;;;;;;6124701;23;20028;-72
2023/12/11 02:29:53;;;;;;;43.80;23.73;;;;;;;;;;6129655;23;20089;-73
2023/12/11 02:32:19;;;;;;;42.35;22.67;;;;;;;;;;6125096;23;20393;-72
2023/12/11 02:34:47;;;;;;;49.85;23.08;;;;;;;;;;6125481;23;20021;-72
2023/12/11 02:37:14;;;;;;;46.03;25.35;;;;;;;;;;6123997;23;20033;-72
2023/12/11 02:39:39;;;;;;;45.33;21.98;;;;;;;;;;6125253;23;20053;-72
2023/12/11 02:42:05;;;;;;;46.65;23.38;;;;;;;;;;6098384;23;20018;-71
2023/12/11 02:44:31;;;;;;;44.58;23.73;;;;;;;;;;6121910;23;20037;-71
2023/12/11 02:46:57;;;;;;;45.50;23.92;;;;;;;;;;6125417;23;20038;-71
2023/12/11 02:49:23;;;;;;;45.25;22.83;;;;;;;;;;6125682;23;20006;-71
2023/12/11 02:51:48;;;;;;;44.63;22.60;;;;;;;;;;6125503;23;20006;-72
2023/12/11 02:54:14;;;;;;;42.30;21.77;;;;;;;;;;6125388;23;20014;-71
2023/12/11 02:56:40;;;;;;;37.15;20.77;;;;;;;;;;6125397;23;20014;-72
2023/12/11 02:59:06;;;;;;;40.22;21.80;;;;;;;;;;6099948;23;20021;-71
2023/12/11 03:01:32;;;;;;;39.58;20.92;;;;;;;;;;6099549;23;20456;-73
2023/12/11 03:03:59;;;;;;;34.03;18.85;;;;;;;;;;6125306;23;20017;-72
2023/12/11 03:06:26;;;;;;;36.78;19.60;;;;;;;;;;6125425;23;20014;-72
2023/12/11 03:08:52;;;;;;;33.90;19.85;;;;;;;;;;6125117;23;20009;-72
2023/12/11 03:11:18;;;;;;;35.50;19.75;;;;;;;;;;6125495;23;20045;-72
2023/12/11 03:13:44;;;;;;;35.40;19.25;;;;;;;;;;6124952;23;20465;-72
2023/12/11 03:16:13;;;;;;;35.83;20.58;;;;;;;;;;6124835;23;20025;-72
2023/12/11 03:18:40;;;;;;;32.80;18.55;;;;;;;;;;6125297;23;20009;-72
2023/12/11 03:21:06;;;;;;;32.03;18.27;;;;;;;;;;6124929;23;20437;-72
2023/12/11 03:23:32;;;;;;;40.75;20.48;;;;;;;;;;6124996;23;20148;-73
2023/12/11 03:25:58;;;;;;;42.28;21.75;;;;;;;;;;6125237;23;20014;-72
2023/12/11 03:28:25;;;;;;;45.83;22.25;;;;;;;;;;6125262;23;20064;-73
2023/12/11 03:30:52;;;;;;;42.83;21.10;;;;;;;;;;6125383;23;20009;-72
2023/12/11 03:33:18;;;;;;;46.03;20.25;;;;;;;;;;6124728;23;20024;-72
2023/12/11 03:35:43;;;;;;;42.05;22.52;;;;;;;;;;6099701;23;20076;-72
2023/12/11 03:38:09;;;;;;;41.63;20.63;;;;;;;;;;6124950;23;20014;-71
2023/12/11 03:40:35;;;;;;;37.15;17.35;;;;;;;;;;6124527;23;20014;-72
2023/12/11 03:43:01;;;;;;;37.92;18.80;;;;;;;;;;6124020;23;20014;-72
2023/12/11 03:45:26;;;;;;;32.88;18.58;;;;;;;;;;6124123;23;20345;-72
2023/12/11 03:47:52;;;;;;;34.88;17.77;;;;;;;;;;6124442;23;20081;-72
2023/12/11 03:50:18;;;;;;;36.83;17.35;;;;;;;;;;6123621;23;20077;-73
2023/12/11 03:52:44;;;;;;;33.78;17.75;;;;;;;;;;6124173;23;20040;-72
2023/12/11 03:55:10;;;;;;;28.80;15.55;;;;;;;;;;6124427;23;20033;-72
2023/12/11 03:57:36;;;;;;;29.88;15.32;;;;;;;;;;6124466;23;20014;-72
2023/12/11 04:00:04;;;;;;;29.08;16.00;;;;;;;;;;6124902;23;20021;-72
2023/12/11 04:02:30;;;;;;;29.95;15.68;;;;;;;;;;6125535;23;20432;-72
2023/12/11 04:04:56;;;;;;;35.17;16.10;;;;;;;;;;6123005;23;20010;-72
2023/12/11 04:07:22;;;;;;;32.20;15.23;;;;;;;;;;6124293;23;20014;-71
2023/12/11 04:09:48;;;;;;;32.88;15.35;;;;;;;;;;6123082;23;20014;-72
2023/12/11 04:12:13;;;;;;;29.80;14.60;;;;;;;;;;6098524;23;20017;-72
2023/12/11 04:14:39;;;;;;;24.08;12.90;;;;;;;;;;6124788;23;20307;-72
2023/12/11 04:17:05;;;;;;;24.02;14.57;;;;;;;;;;6123137;23;20010;-73
2023/12/11 04:19:31;;;;;;;27.10;15.10;;;;;;;;;;6124548;23;20018;-72
2023/12/11 04:21:57;;;;;;;30.85;16.00;;;;;;;;;;6124471;23;20085;-72
2023/12/11 04:24:23;;;;;;;33.35;16.92;;;;;;;;;;6124192;23;20010;-72
2023/12/11 04:26:48;;;;;;;32.95;18.98;;;;;;;;;;6124409;23;20014;-73
2023/12/11 04:29:14;;;;;;;38.10;19.77;;;;;;;;;;6124478;23;20037;-72
2023/12/11 04:31:40;;;;;;;40.40;22.30;;;;;;;;;;6124243;23;20002;-72
2023/12/11 04:34:06;;;;;;;53.00;22.23;;;;;;;;;;6124692;23;20010;-73
2023/12/11 04:36:32;;;;;;;37.42;20.35;;;;;;;;;;6125116;23;20024;-72
2023/12/11 04:38:57;;;;;;;37.70;19.60;;;;;;;;;;6125181;23;20105;-72
2023/12/11 04:41:23;;;;;;;40.17;21.40;;;;;;;;;;6124715;23;20009;-72
2023/12/11 04:43:49;;;;;;;38.08;19.95;;;;;;;;;;6124407;23;20045;-72
2023/12/11 04:46:15;;;;;;;38.40;20.27;;;;;;;;;;6124936;23;20018;-72
2023/12/11 04:48:41;;;;;;;38.30;21.75;;;;;;;;;;6098483;23;20524;-74
2023/12/11 04:51:06;;;;;;;36.80;20.70;;;;;;;;;;6098943;23;20033;-73
2023/12/11 04:53:32;;;;;;;39.47;20.15;;;;;;;;;;6124009;23;20014;-74
2023/12/11 04:55:58;;;;;;;36.80;17.70;;;;;;;;;;6124872;23;20018;-73
2023/12/11 04:58:24;;;;;;;36.03;17.50;;;;;;;;;;6131610;23;20006;-73
2023/12/11 05:00:50;;;;;;;33.45;17.65;;;;;;;;;;6124330;23;20109;-73
2023/12/11 05:03:16;;;;;;;38.05;18.13;;;;;;;;;;6122437;23;20018;-73
2023/12/11 05:05:41;;;;;;;37.85;18.77;;;;;;;;;;6124669;23;20021;-73
2023/12/11 05:08:07;;;;;;;34.90;17.63;;;;;;;;;;6123678;23;20400;-72
2023/12/11 05:10:34;;;;;;;39.92;19.27;;;;;;;;;;6122520;23;20501;-73
2023/12/11 05:12:59;;;;;;;42.85;19.75;;;;;;;;;;6121376;23;20017;-73
2023/12/11 05:15:25;;;;;;;34.47;19.73;;;;;;;;;;6121630;23;20006;-73
2023/12/11 05:17:51;;;;;;;44.10;20.35;;;;;;;;;;6122167;23;20056;-72
2023/12/11 05:20:19;;;;;;;47.90;21.92;;;;;;;;;;6122453;23;20006;-72
2023/12/11 05:22:44;;;;;;;38.20;19.83;;;;;;;;;;6122577;23;20093;-74
2023/12/11 05:25:10;;;;;;;49.47;23.00;;;;;;;;;;6122832;23;20041;-72
2023/12/11 05:27:36;;;;;;;49.78;22.85;;;;;;;;;;6125064;23;20010;-74
2023/12/11 05:30:02;;;;;;;54.13;21.67;;;;;;;;;;6124778;23;20048;-72
2023/12/11 05:32:28;;;;;;;48.40;20.95;;;;;;;;;;6123912;23;20013;-73
2023/12/11 05:34:54;;;;;;;41.30;20.60;;;;;;;;;;6123982;23;20021;-72
2023/12/11 05:37:20;;;;;;;53.58;22.67;;;;;;;;;;6124136;23;20092;-72
2023/12/11 05:39:46;;;;;;;36.28;19.02;;;;;;;;;;6124471;23;20038;-73
2023/12/11 05:42:12;;;;;;;43.72;22.67;;;;;;;;;;6122640;23;20014;-72
2023/12/11 05:44:37;;;;;;;36.80;20.20;;;;;;;;;;6123954;23;20018;-72
2023/12/11 05:47:04;;;;;;;40.58;21.42;;;;;;;;;;6123733;23;20078;-74
2023/12/11 05:49:30;;;;;;;49.17;23.52;;;;;;;;;;6124989;23;20026;-73
2023/12/11 05:51:56;;;;;;;54.20;27.27;;;;;;;;;;6123911;23;20385;-74
2023/12/11 05:54:22;;;;;;;49.13;24.60;;;;;;;;;;6097877;23;20107;-73
2023/12/11 05:56:48;;;;;;;70.85;25.55;;;;;;;;;;6128552;23;20024;-72
2023/12/11 05:59:14;;;;;;;56.92;23.50;;;;;;;;;;6124162;23;20437;-73
2023/12/11 06:01:40;;;;;;;51.72;24.38;;;;;;;;;;6124838;23;20083;-73
2023/12/11 06:04:06;;;;;;;52.83;25.35;;;;;;;;;;6130170;23;20010;-73
2023/12/11 06:06:32;;;;;;;62.53;29.38;;;;;;;;;;6127833;23;20009;-73
2023/12/11 06:08:59;;;;;;;69.53;28.98;;;;;;;;;;6124279;23;20065;-73
2023/12/11 06:11:25;;;;;;;52.97;25.85;;;;;;;;;;6123872;23;20393;-73
2023/12/11 06:13:50;;;;;;;49.03;25.95;;;;;;;;;;6123129;23;20013;-73
2023/12/11 06:16:16;;;;;;;52.17;23.67;;;;;;;;;;6123308;23;20017;-73
2023/12/11 06:18:42;;;;;;;46.95;22.52;;;;;;;;;;6123500;23;20113;-73
2023/12/11 06:21:17;;;;;;;44.95;22.90;;;;;;;;;;6122852;23;20014;-73
2023/12/11 06:23:43;;;;;;;48.08;23.48;;;;;;;;;;6122228;23;20029;-72
2023/12/11 06:26:09;;;;;;;57.50;25.23;;;;;;;;;;6123095;23;20441;-73
2023/12/11 06:28:35;;;;;;;53.47;22.65;;;;;;;;;;6122580;23;20110;-73
2023/12/11 06:31:01;;;;;;;68.20;25.58;;;;;;;;;;6122072;23;20104;-72
2023/12/11 06:33:27;;;;;;;50.80;21.85;;;;;;;;;;6123243;23;20021;-74
2023/12/11 06:35:52;;;;;;;54.05;24.30;;;;;;;;;;6123222;23;20017;-72
2023/12/11 06:38:18;;;;;;;46.05;23.88;;;;;;;;;;6122103;23;20089;-72
2023/12/11 06:40:44;;;;;;;52.85;23.13;;;;;;;;;;6122730;23;20319;-71
2023/12/11 06:43:10;;;;;;;45.53;22.55;;;;;;;;;;6122362;23;20040;-72
2023/12/11 06:45:37;;;;;;;50.72;24.50;;;;;;;;;;6096800;23;20440;-72
2023/12/11 06:48:04;;;;;;;53.28;24.83;;;;;;;;;;6123814;23;20055;-72
2023/12/11 06:50:29;;;;;;;59.17;25.73;;;;;;;;;;6098654;23;20014;-74
2023/12/11 06:52:55;;;;;;;49.95;27.10;;;;;;;;;;6123117;23;20037;-72
2023/12/11 06:55:21;;;;;;;70.20;26.42;;;;;;;;;;6123343;23;20014;-72
2023/12/11 06:57:47;;;;;;;42.25;22.30;;;;;;;;;;6124298;23;20041;-72
2023/12/11 07:00:13;;;;;;;35.90;20.38;;;;;;;;;;6097661;23;20016;-72
2023/12/11 07:02:39;;;;;;;35.20;19.20;;;;;;;;;;6122131;23;20021;-71
2023/12/11 07:05:06;;;;;;;33.53;17.70;;;;;;;;;;6124151;23;20016;-71
2023/12/11 07:07:32;;;;;;;44.25;19.10;;;;;;;;;;6127503;23;20092;-71
2023/12/11 07:10:04;;;;;;;31.95;18.90;;;;;;;;;;6124860;23;20029;-72
2023/12/11 07:12:30;;;;;;;29.98;19.25;;;;;;;;;;6126149;23;20016;-72
2023/12/11 07:14:56;;;;;;;32.88;19.58;;;;;;;;;;6124549;23;20014;-72
2023/12/11 07:17:22;;;;;;;35.55;20.67;;;;;;;;;;6124060;23;20455;-71
2023/12/11 07:19:48;;;;;;;30.90;19.23;;;;;;;;;;6122860;23;20082;-71
2023/12/11 07:22:14;;;;;;;35.05;19.27;;;;;;;;;;6124264;23;20362;-70
2023/12/11 07:24:40;;;;;;;37.97;19.08;;;;;;;;;;6124572;23;20014;-71
2023/12/11 07:27:05;;;;;;;38.53;21.83;;;;;;;;;;6123662;23;20107;-73
2023/12/11 07:29:32;;;;;;;34.63;21.20;;;;;;;;;;6123540;23;20021;-72
2023/12/11 07:31:58;;;;;;;39.53;21.13;;;;;;;;;;6123969;23;20093;-72
2023/12/11 07:34:24;;;;;;;33.70;18.15;;;;;;;;;;6123614;23;20014;-73
2023/12/11 07:36:52;;;;;;;31.63;18.33;;;;;;;;;;6124822;23;20006;-71
2023/12/11 07:39:18;;;;;;;33.92;18.10;;;;;;;;;;6124397;23;20018;-72
2023/12/11 07:41:44;;;;;;;43.60;20.83;;;;;;;;;;6123731;23;20017;-71
2023/12/11 07:44:10;;;;;;;39.30;21.65;;;;;;;;;;6123600;23;20021;-71
2023/12/11 07:46:36;;;;;;;37.80;21.52;;;;;;;;;;6097766;23;20073;-72
2023/12/11 07:49:02;;;;;;;37.90;21.08;;;;;;;;;;6121291;23;20013;-72
2023/12/11 07:51:29;;;;;;;43.28;21.48;;;;;;;;;;6122927;23;20077;-71
2023/12/11 07:53:57;;;;;;;44.53;21.83;;;;;;;;;;6095318;23;20433;-71
2023/12/11 07:56:23;;;;;;;38.75;20.35;;;;;;;;;;6122256;23;20071;-71
2023/12/11 07:58:50;;;;;;;47.13;24.23;;;;;;;;;;6123893;23;20036;-73
2023/12/11 08:01:16;;;;;;;47.63;24.67;;;;;;;;;;6121251;23;20006;-72
2023/12/11 08:03:43;;;;;;;59.45;29.42;;;;;;;;;;6122444;23;20392;-70
2023/12/11 08:06:09;;;;;;;54.13;29.27;;;;;;;;;;6123507;23;20013;-70
2023/12/11 08:08:44;;;;;;;49.03;28.05;;;;;;;;;;6123163;23;20013;-71
2023/12/11 08:11:18;;;;;;;54.63;27.65;;;;;;;;;;6123264;23;20082;-71
2023/12/11 08:13:45;;;;;;;56.85;29.85;;;;;;;;;;6122505;23;20018;-70
2023/12/11 08:16:14;;;;;;;55.45;27.30;;;;;;;;;;6124110;23;20021;-70
2023/12/11 08:18:48;;;;;;;55.30;26.05;;;;;;;;;;6123634;23;20329;-71
2023/12/11 08:21:16;;;;;;;47.70;24.65;;;;;;;;;;6123114;23;20029;-71
2023/12/11 08:23:50;;;;;;;42.30;24.23;;;;;;;;;;6120827;23;20449;-70
2023/12/11 08:26:18;;;;;;;38.10;21.88;;;;;;;;;;6122281;23;20013;-70
2023/12/11 08:28:44;;;;;;;39.45;20.48;;;;;;;;;;6123109;23;20009;-71
2023/12/11 08:31:10;;;;;;;32.90;19.10;;;;;;;;;;6122388;23;20033;-69
2023/12/11 08:33:36;;;;;;;41.35;20.05;;;;;;;;;;6096216;23;20033;-71
2023/12/11 08:36:03;;;;;;;31.08;18.30;;;;;;;;;;6123682;23;20147;-71
2023/12/11 08:38:29;;;;;;;29.27;17.13;;;;;;;;;;6123152;23;20010;-71
2023/12/11 08:41:00;;;;;;;36.90;18.75;;;;;;;;;;6122334;23;20468;-72
2023/12/11 08:43:26;;;;;;;37.85;16.98;;;;;;;;;;6122439;23;20017;-72
2023/12/11 08:45:52;;;;;;;26.23;15.10;;;;;;;;;;6123028;23;20013;-71
2023/12/11 08:48:18;;;;;;;28.77;16.05;;;;;;;;;;6120955;23;20010;-72
2023/12/11 08:50:44;;;;;;;25.08;16.40;;;;;;;;;;6123190;23;20471;-71
2023/12/11 08:53:10;;;;;;;30.67;15.07;;;;;;;;;;6122225;23;20017;-71
2023/12/11 08:55:38;;;;;;;30.08;13.40;;;;;;;;;;6122766;23;20089;-71
2023/12/11 08:58:03;;;;;;;22.73;13.35;;;;;;;;;;6122502;23;20080;-71
2023/12/11 09:00:29;;;;;;;27.13;14.00;;;;;;;;;;6123513;23;20441;-71
2023/12/11 09:02:55;;;;;;;25.00;14.75;;;;;;;;;;6122681;23;20390;-71
2023/12/11 09:05:21;;;;;;;21.35;12.18;;;;;;;;;;6124470;23;20049;-71
2023/12/11 09:07:47;;;;;;;23.27;12.40;;;;;;;;;;6123967;23;20440;-73
2023/12/11 09:10:14;;;;;;;20.48;10.73;;;;;;;;;;6124004;23;20018;-71
2023/12/11 09:12:41;;;;;;;20.25;11.32;;;;;;;;;;6123883;23;20014;-72
2023/12/11 09:15:07;;;;;;;25.50;11.50;;;;;;;;;;6114159;23;20018;-72
2023/12/11 09:17:34;;;;;;;21.45;11.45;;;;;;;;;;6119895;23;20037;-71
2023/12/11 09:20:04;;;;;;;23.48;11.45;;;;;;;;;;6123776;23;20018;-73
2023/12/11 09:22:31;;;;;;;28.55;14.52;;;;;;;;;;6124980;23;20026;-72
2023/12/11 09:24:57;;;;;;;25.48;12.38;;;;;;;;;;6123753;23;20020;-72
2023/12/11 09:27:23;;;;;;;29.60;12.77;;;;;;;;;;6096997;23;20037;-72
2023/12/11 09:29:49;;;;;;;22.70;12.80;;;;;;;;;;6122978;23;20074;-74
2023/12/11 09:32:16;;;;;;;22.90;11.77;;;;;;;;;;6123161;23;20036;-73
2023/12/11 09:34:42;;;;;;;21.27;12.88;;;;;;;;;;6124576;23;20006;-73
2023/12/11 09:37:07;;;;;;;20.17;12.13;;;;;;;;;;6123482;23;20014;-70
2023/12/11 09:39:33;;;;;;;20.25;12.18;;;;;;;;;;6124336;23;20077;-71
2023/12/11 09:42:02;;;;;;;21.02;12.38;;;;;;;;;;6124278;23;20010;-74
2023/12/11 09:44:28;;;;;;;23.58;12.90;;;;;;;;;;6122693;23;20483;-73
2023/12/11 09:46:58;;;;;;;28.25;12.88;;;;;;;;;;6096258;23;20045;-72
2023/12/11 09:49:25;;;;;;;27.20;15.32;;;;;;;;;;6123462;23;20061;-72
2023/12/11 09:51:52;;;;;;;27.83;14.30;;;;;;;;;;6123909;23;20035;-72
2023/12/11 09:54:18;;;;;;;25.90;13.60;;;;;;;;;;6123437;23;20033;-72
2023/12/11 09:56:44;;;;;;;30.48;15.48;;;;;;;;;;6124507;23;20014;-71
2023/12/11 09:59:13;;;;;;;30.48;15.18;;;;;;;;;;6124312;23;20014;-71
2023/12/11 10:01:39;;;;;;;25.50;14.35;;;;;;;;;;6124181;23;20110;-72
2023/12/11 10:04:07;;;;;;;25.02;15.15;;;;;;;;;;6123749;23;20016;-72
2023/12/11 10:06:33;;;;;;;33.95;15.40;;;;;;;;;;6124382;23;20475;-72
2023/12/11 10:08:59;;;;;;;34.67;18.02;;;;;;;;;;6123393;23;20013;-72
2023/12/11 10:11:26;;;;;;;34.20;16.17;;;;;;;;;;6124198;23;20006;-71
2023/12/11 10:13:52;;;;;;;31.42;16.67;;;;;;;;;;6123892;23;20014;-71
2023/12/11 10:16:28;;;;;;;28.13;16.27;;;;;;;;;;6097349;23;20463;-73
2023/12/11 10:18:56;;;;;;;33.33;17.13;;;;;;;;;;6124809;23;20164;-71
2023/12/11 10:21:26;;;;;;;31.02;15.98;;;;;;;;;;6097811;23;20022;-72
2023/12/11 10:24:03;;;;;;;21.63;12.60;;;;;;;;;;6122997;23;20531;-72
2023/12/11 10:26:32;;;;;;;25.40;14.02;;;;;;;;;;6121533;23;20041;-71
2023/12/11 10:29:19;;;;;;;21.73;13.50;;;;;;;;;;6096705;23;20401;-71
2023/12/11 10:31:46;;;;;;;21.98;13.82;;;;;;;;;;6125534;23;20014;-71
2023/12/11 10:34:13;;;;;;;23.65;13.77;;;;;;;;;;6124511;23;20002;-70
2023/12/11 10:36:49;;;;;;;22.25;13.65;;;;;;;;;;6123295;23;20017;-70
2023/12/11 10:39:15;;;;;;;27.15;14.38;;;;;;;;;;6123858;23;20018;-71
2023/12/11 10:41:45;;;;;;;23.77;13.50;;;;;;;;;;6122459;23;20017;-71
2023/12/11 10:44:25;;;;;;;25.73;13.85;;;;;;;;;;6122656;23;20096;-71
2023/12/11 10:46:56;;;;;;;27.95;15.63;;;;;;;;;;6124781;23;20012;-70
2023/12/11 10:49:23;;;;;;;25.30;14.98;;;;;;;;;;6124693;23;20098;-71
2023/12/11 10:51:49;;;;;;;20.63;13.80;;;;;;;;;;6123932;23;19994;-71
2023/12/11 10:54:15;;;;;;;30.30;15.02;;;;;;;;;;6098680;23;20076;-71
2023/12/11 10:56:45;;;;;;;27.35;14.77;;;;;;;;;;6125057;23;20365;-70
2023/12/11 10:59:13;;;;;;;33.60;14.50;;;;;;;;;;6124782;23;20060;-71
2023/12/11 11:01:42;;;;;;;24.30;13.07;;;;;;;;;;6126507;23;20030;-71
2023/12/11 11:04:09;;;;;;;19.90;11.82;;;;;;;;;;6125018;23;20010;-71
2023/12/11 11:06:59;;;;;;;22.10;12.43;;;;;;;;;;6100351;23;20390;-70
2023/12/11 11:09:50;;;;;;;21.65;10.48;;;;;;;;;;6124998;23;20014;-71
2023/12/11 11:12:47;;;;;;;19.95;11.63;;;;;;;;;;6124612;23;20088;-72
2023/12/11 11:15:21;;;;;;;16.08;9.38;;;;;;;;;;6124623;23;20019;-70
2023/12/11 11:17:55;;;;;;;;;;;;;;;;;;6125688;23;20437;-70
2023/12/11 11:20:21;;;;;;;19.05;9.50;;;;;;;;;;6125396;23;19909;-71
2023/12/11 11:22:50;;;;;;;25.52;10.63;;;;;;;;;;6096910;23;20006;-71
2023/12/11 11:25:36;;;;;;;20.67;11.52;;;;;;;;;;6124193;23;20009;-71
2023/12/11 11:28:03;;;;;;;17.38;11.32;;;;;;;;;;6099929;23;20021;-71
2023/12/11 11:30:44;;;;;;;21.30;12.10;;;;;;;;;;6098982;23;20294;-72
2023/12/11 11:33:11;;;;;;;20.05;10.35;;;;;;;;;;6123086;23;20018;-71
2023/12/11 11:35:43;;;;;;;23.58;10.02;;;;;;;;;;6124697;23;20002;-72
2023/12/11 11:38:09;;;;;;;19.52;9.77;;;;;;;;;;6124209;23;20439;-72
2023/12/11 11:40:36;;;;;;;18.50;9.15;;;;;;;;;;6124353;23;20013;-72
2023/12/11 11:43:03;;;;;;;13.60;7.82;;;;;;;;;;6124350;23;20009;-71
2023/12/11 11:45:31;;;;;;;18.17;10.43;;;;;;;;;;6124214;23;20002;-71
2023/12/11 11:47:57;;;;;;;12.88;7.20;;;;;;;;;;6125172;23;20005;-74
2023/12/11 11:50:23;;;;;;;12.77;7.78;;;;;;;;;;6124648;23;20460;-72
2023/12/11 11:52:58;;;;;;;13.02;6.97;;;;;;;;;;6124847;23;20010;-71
2023/12/11 11:55:28;;;;;;;17.13;8.88;;;;;;;;;;6125154;23;20041;-71
2023/12/11 11:57:54;;;;;;;23.33;9.20;;;;;;;;;;6125045;23;20020;-71
2023/12/11 12:00:33;;;;;;;13.52;7.90;;;;;;;;;;6124720;23;20038;-71
2023/12/11 12:03:04;;;;;;;11.18;6.30;;;;;;;;;;6124747;23;20021;-71
2023/12/11 12:05:30;;;;;;;13.32;6.72;;;;;;;;;;6125241;23;20053;-70
2023/12/11 12:07:56;;;;;;;12.10;6.75;;;;;;;;;;6124611;23;20001;-72
2023/12/11 12:10:22;;;;;;;15.05;7.55;;;;;;;;;;6124078;23;20020;-70
2023/12/11 12:12:55;;;;;;;14.88;7.10;;;;;;;;;;6124025;23;20076;-71
2023/12/11 12:15:21;;;;;;;13.98;6.95;;;;;;;;;;6124317;23;20555;-72
2023/12/11 12:17:47;;;;;;;12.52;7.03;;;;;;;;;;6124349;23;20010;-71
2023/12/11 12:20:14;;;;;;;11.48;7.43;;;;;;;;;;6124187;23;20061;-71
2023/12/11 12:22:58;;;;;;;20.42;8.98;;;;;;;;;;6124192;23;20266;-71
2023/12/11 12:25:26;;;;;;;16.92;7.78;;;;;;;;;;6098087;23;20022;-72
2023/12/11 12:27:53;;;;;;;13.43;7.30;;;;;;;;;;6124366;23;20040;-70
2023/12/11 12:30:19;;;;;;;15.23;7.50;;;;;;;;;;6124477;23;20010;-71
2023/12/11 12:32:50;;;;;;;15.88;7.88;;;;;;;;;;6098356;23;20036;-72
2023/12/11 12:35:18;;;;;;;16.48;8.75;;;;;;;;;;6122101;23;20017;-71
2023/12/11 12:37:45;;;;;;;26.25;9.85;;;;;;;;;;6124141;23;20026;-71
2023/12/11 12:40:12;;;;;;;11.43;6.22;;;;;;;;;;6124087;23;20014;-73
2023/12/11 12:42:39;;;;;;;17.08;7.15;;;;;;;;;;6125874;23;20076;-71
2023/12/11 12:45:06;;;;;;;11.65;7.07;;;;;;;;;;6126171;23;20322;-73
2023/12/11 12:47:33;;;;;;;16.85;9.57;;;;;;;;;;6123230;23;20109;-71
2023/12/11 12:49:59;;;;;;;23.00;9.90;;;;;;;;;;6122479;23;20006;-70
2023/12/11 12:52:25;;;;;;;20.85;8.15;;;;;;;;;;6123959;23;20005;-71
2023/12/11 12:54:54;;;;;;;11.50;6.38;;;;;;;;;;6123957;23;20038;-71
2023/12/11 12:57:19;;;;;;;14.65;6.68;;;;;;;;;;6124219;23;20002;-70
2023/12/11 12:59:46;;;;;;;12.07;6.85;;;;;;;;;;6124445;23;20021;-70
2023/12/11 13:02:13;;;;;;;15.90;6.78;;;;;;;;;;6124018;23;20452;-70
2023/12/11 13:04:50;;;;;;;16.60;8.02;;;;;;;;;;6123924;23;20524;-70
2023/12/11 13:07:16;;;;;;;11.15;6.25;;;;;;;;;;6124195;23;20021;-73
2023/12/11 13:09:41;;;;;;;9.10;5.55;;;;;;;;;;6124639;23;20005;-72
2023/12/11 13:12:08;;;;;;;13.52;7.38;;;;;;;;;;6122137;23;20078;-70
2023/12/11 13:14:33;;;;;;;19.10;7.22;;;;;;;;;;6097722;23;20008;-71
2023/12/11 13:16:59;;;;;;;10.93;5.90;;;;;;;;;;6124249;23;20032;-71
2023/12/11 13:19:26;;;;;;;16.10;7.35;;;;;;;;;;6124825;23;20436;-70
2023/12/11 13:21:53;;;;;;;14.60;7.05;;;;;;;;;;6125426;23;20568;-70
2023/12/11 13:24:19;;;;;;;12.77;5.43;;;;;;;;;;6127338;23;20016;-70
2023/12/11 13:26:44;;;;;;;8.85;5.32;;;;;;;;;;6124893;23;20010;-71
2023/12/11 13:29:10;;;;;;;10.27;5.25;;;;;;;;;;6124370;23;20002;-71
2023/12/11 13:31:36;;;;;;;13.45;5.57;;;;;;;;;;6098911;23;20017;-71
2023/12/11 13:34:02;;;;;;;9.50;5.40;;;;;;;;;;6123948;23;20497;-70
2023/12/11 13:36:28;;;;;;;15.90;6.68;;;;;;;;;;6098204;23;20041;-71
2023/12/11 13:38:54;;;;;;;11.65;5.38;;;;;;;;;;6124465;23;20002;-70
2023/12/11 13:41:20;;;;;;;17.13;7.82;;;;;;;;;;6123977;23;20073;-70
2023/12/11 13:43:46;;;;;;;15.57;7.68;;;;;;;;;;6123829;23;20010;-72
2023/12/11 13:46:13;;;;;;;13.23;6.93;;;;;;;;;;6123927;23;20065;-71
2023/12/11 13:48:39;;;;;;;12.63;5.80;;;;;;;;;;6120270;23;20089;-70
2023/12/11 13:51:08;;;;;;;14.85;6.28;;;;;;;;;;6096362;23;20029;-69
2023/12/11 13:53:35;;;;;;;11.40;5.53;;;;;;;;;;6124331;23;20013;-72
2023/12/11 13:56:02;;;;;;;13.30;6.68;;;;;;;;;;6098787;23;20306;-70
2023/12/11 13:58:27;;;;;;;10.65;5.90;;;;;;;;;;6098671;23;20064;-69
2023/12/11 14:00:53;;;;;;;16.67;7.68;;;;;;;;;;6124790;23;20337;-69
2023/12/11 14:03:22;;;;;;;14.63;6.20;;;;;;;;;;6124397;23;20329;-69
2023/12/11 14:05:49;;;;;;;10.02;5.13;;;;;;;;;;6124817;23;20022;-69
2023/12/11 14:08:15;;;;;;;14.63;5.22;;;;;;;;;;6125136;23;20341;-70
2023/12/11 14:10:42;;;;;;;11.27;6.18;;;;;;;;;;6124235;23;20061;-71
2023/12/11 14:13:12;;;;;;;10.55;4.75;;;;;;;;;;6123580;23;20013;-72
2023/12/11 14:15:40;;;;;;;16.17;6.50;;;;;;;;;;6124679;23;20068;-72
2023/12/11 14:18:06;;;;;;;18.58;7.18;;;;;;;;;;6123064;23;20002;-71
2023/12/11 14:20:31;;;;;;;15.50;7.22;;;;;;;;;;6125232;23;20024;-72